Argyle, Missouri
Current Conditions -  °F | °C
As of 11:53 PM on Tuesday 21 Oct 2014 (Local Time) from KVIH Reporting Station
Clear Clear  
Wind Chill: 51°   Ceiling: Unl
Heat Index: 51°   Visibility: 10mi
Dew Point: 43°   Wind: 9mph
Humidity: 74%   Direction: 100°E
Pressure: 30.16"   Gusts: NA
Location:  38.29°N, 92.03°W
Report Text: KVIH 220453Z AUTO 10008KT 10SM CLR 11/06 A3016 RMK AO2 SLP208 T01060061
Loading
Personal Weather Stations






























Interactive Weather Map
Tropical Storm Tracking
New forecast layout! Learn more

10-Day Weather Forecast

Advertisements
Track Severe Weather on mobile